Time;durP1;ratioP1;P1;durP2;ratioP2;P2;SDS_P1;SDS_P2;PMS_P1;PMS_P2;Temp;Humidity;BMP_temperature;BMP_pressure;BME280_temperature;BME280_humidity;BME280_pressure;Samples;Min_cycle;Max_cycle;Signal;HPM_P1;HPM_P2
2021/05/17 00:02:28;;;;;;;13.88;8.60;;;11.70;99.90;;;;;;10461976;28;20041;-58
2021/05/17 00:07:30;;;;;;;14.13;7.05;;;11.60;99.90;;;;;;10461814;28;20051;-57
2021/05/17 00:12:32;;;;;;;10.88;7.40;;;11.70;99.90;;;;;;10461307;28;20485;-59
2021/05/17 00:17:35;;;;;;;10.80;8.45;;;11.60;99.90;;;;;;10461407;28;20045;-56
2021/05/17 00:22:37;;;;;;;18.65;9.48;;;11.60;99.90;;;;;;10461562;28;20049;-59
2021/05/17 00:27:41;;;;;;;11.68;8.80;;;11.60;99.90;;;;;;10460577;28;20091;-59
2021/05/17 00:32:44;;;;;;;16.15;9.50;;;11.60;99.90;;;;;;10459609;28;20495;-59
2021/05/17 00:37:46;;;;;;;10.02;7.70;;;11.50;99.90;;;;;;10460745;28;20045;-59
2021/05/17 00:42:50;;;;;;;18.60;10.02;;;11.60;99.90;;;;;;10460293;28;20037;-60
2021/05/17 00:47:53;;;;;;;11.60;8.85;;;11.50;99.90;;;;;;10459439;28;20049;-58
2021/05/17 00:52:57;;;;;;;13.93;8.80;;;11.50;99.90;;;;;;10475211;28;20045;-61
2021/05/17 00:57:59;;;;;;;9.55;7.88;;;11.40;99.90;;;;;;10459949;28;20049;-59
2021/05/17 01:03:01;;;;;;;11.77;7.90;;;11.30;99.90;;;;;;10459275;28;20499;-60
2021/05/17 01:08:04;;;;;;;10.70;9.15;;;11.30;99.90;;;;;;10459549;28;20041;-60
2021/05/17 01:13:07;;;;;;;11.40;9.13;;;11.30;99.90;;;;;;10458135;28;20128;-61
2021/05/17 01:18:10;;;;;;;10.40;9.13;;;11.30;99.90;;;;;;10458661;28;20047;-59
2021/05/17 01:28:31;;;;;;;8.40;7.53;;;11.30;99.90;;;;;;10458588;28;20041;-59
2021/05/17 01:33:43;;;;;;;9.88;7.65;;;11.20;99.90;;;;;;10459314;28;20140;-61
2021/05/17 01:38:54;;;;;;;8.27;7.25;;;11.30;99.90;;;;;;10458075;28;20036;-60
2021/05/17 01:43:58;;;;;;;7.95;6.32;;;11.30;99.90;;;;;;10457907;28;20131;-60
2021/05/17 01:49:00;;;;;;;7.68;6.90;;;11.30;99.90;;;;;;10458300;28;20059;-62
2021/05/17 01:54:04;;;;;;;7.72;6.05;;;11.20;99.90;;;;;;10457468;28;20481;-61
2021/05/17 01:59:08;;;;;;;6.72;6.20;;;11.10;99.90;;;;;;10457536;28;20465;-60
2021/05/17 02:04:10;;;;;;;7.30;6.20;;;11.20;99.90;;;;;;10457673;28;20037;-61
2021/05/17 02:09:13;;;;;;;9.20;5.93;;;11.20;99.90;;;;;;10457756;28;20037;-60
2021/05/17 02:14:21;;;;;;;8.73;6.00;;;11.00;99.90;;;;;;10457038;28;20047;-61
2021/05/17 02:19:24;;;;;;;12.00;8.98;;;11.00;99.90;;;;;;10457383;28;20056;-60
2021/05/17 02:24:29;;;;;;;7.20;5.70;;;10.90;99.90;;;;;;10456689;28;20047;-61
2021/05/17 02:29:31;;;;;;;10.20;6.47;;;10.90;99.90;;;;;;10456782;28;20044;-58
2021/05/17 02:34:34;;;;;;;14.60;9.93;;;11.00;99.90;;;;;;10471701;28;20404;-60
2021/05/17 02:39:40;;;;;;;12.07;8.63;;;11.00;99.90;;;;;;10456753;28;20148;-60
2021/05/17 02:44:42;;;;;;;10.63;7.55;;;10.90;99.90;;;;;;10456395;28;20037;-60
2021/05/17 02:49:44;;;;;;;12.40;7.90;;;11.00;99.90;;;;;;10457322;28;20075;-60
2021/05/17 02:55:02;;;;;;;10.90;7.25;;;11.00;99.90;;;;;;10464738;28;20055;-61
2021/05/17 03:00:08;;;;;;;15.68;9.52;;;11.00;99.90;;;;;;10464412;28;20041;-61
2021/05/17 03:05:12;;;;;;;11.55;9.70;;;11.00;99.90;;;;;;10464501;28;20063;-60
2021/05/17 03:10:15;;;;;;;11.55;7.00;;;11.00;99.90;;;;;;10462668;28;20049;-61
2021/05/17 03:15:17;;;;;;;14.90;9.95;;;11.00;99.90;;;;;;10462800;28;20052;-58
2021/05/17 03:20:20;;;;;;;13.20;9.77;;;11.00;99.90;;;;;;10463755;28;20064;-61
2021/05/17 03:25:34;;;;;;;11.15;8.07;;;11.00;99.90;;;;;;10463071;28;20470;-63
2021/05/17 03:30:36;;;;;;;15.23;9.18;;;11.00;99.90;;;;;;10463185;28;20380;-60
2021/05/17 03:35:38;;;;;;;12.48;8.70;;;11.00;99.90;;;;;;10462824;28;20095;-60
2021/05/17 03:40:40;;;;;;;12.20;8.85;;;11.00;99.90;;;;;;10462474;28;20043;-59
2021/05/17 03:45:42;;;;;;;14.75;9.52;;;11.10;99.90;;;;;;10461416;28;20381;-60
2021/05/17 03:50:44;;;;;;;13.32;9.40;;;11.10;99.90;;;;;;10462602;28;20463;-60
2021/05/17 03:55:46;;;;;;;10.23;7.10;;;11.10;99.90;;;;;;10462398;28;20051;-61
2021/05/17 04:00:49;;;;;;;11.80;8.30;;;11.00;99.90;;;;;;10462015;28;20140;-60
2021/05/17 04:16:22;;;;;;;12.57;7.15;;;10.90;99.90;;;;;;10461907;28;20059;-60
2021/05/17 04:21:24;;;;;;;9.60;5.85;;;11.00;99.90;;;;;;10461418;28;20049;-62
2021/05/17 04:26:26;;;;;;;11.77;6.57;;;11.00;99.90;;;;;;10461071;28;20053;-60
2021/05/17 04:31:28;;;;;;;7.95;6.47;;;11.00;99.90;;;;;;10460937;28;20037;-60
2021/05/17 04:36:31;;;;;;;8.70;6.28;;;11.00;99.90;;;;;;10460637;28;20059;-60
2021/05/17 04:41:33;;;;;;;9.00;6.43;;;11.00;99.90;;;;;;10460317;28;20059;-60
2021/05/17 04:46:35;;;;;;;6.28;5.10;;;11.00;99.90;;;;;;10475604;28;20041;-60
2021/05/17 04:51:37;;;;;;;6.55;5.28;;;11.00;99.90;;;;;;10460204;28;20041;-60
2021/05/17 04:56:39;;;;;;;5.65;4.68;;;11.00;99.90;;;;;;10459659;28;20477;-59
2021/05/17 05:01:41;;;;;;;6.97;5.47;;;11.10;99.90;;;;;;10459667;28;20488;-60
2021/05/17 05:06:43;;;;;;;9.55;5.70;;;11.00;99.90;;;;;;10459658;28;20063;-61
2021/05/17 05:11:45;;;;;;;7.03;4.57;;;11.10;99.90;;;;;;10459273;28;20532;-62
2021/05/17 05:16:47;;;;;;;6.65;5.65;;;11.10;99.90;;;;;;10458889;28;20491;-59
2021/05/17 05:21:49;;;;;;;5.88;4.90;;;11.10;99.90;;;;;;10458559;28;20485;-60
2021/05/17 05:26:58;;;;;;;11.75;6.43;;;11.20;99.90;;;;;;10457467;28;20041;-58
2021/05/17 05:37:03;;;;;;;5.82;4.95;;;11.20;99.90;;;;;;10458419;28;20047;-60
2021/05/17 05:42:06;;;;;;;6.68;5.13;;;11.30;99.90;;;;;;10458034;28;20049;-59
2021/05/17 05:47:11;;;;;;;9.40;5.70;;;11.30;99.90;;;;;;10458027;28;20047;-60
2021/05/17 05:52:15;;;;;;;11.77;6.13;;;11.30;99.90;;;;;;10457631;28;20049;-60
2021/05/17 05:57:17;;;;;;;8.95;6.15;;;11.40;99.90;;;;;;10457631;28;20086;-60
2021/05/17 06:02:19;;;;;;;5.88;4.97;;;11.50;99.90;;;;;;10458073;28;20132;-60
2021/05/17 06:07:21;;;;;;;8.77;5.35;;;11.60;99.90;;;;;;10457618;28;20051;-60
2021/05/17 06:12:24;;;;;;;7.03;5.15;;;11.60;99.90;;;;;;10457187;28;20055;-60
2021/05/17 06:17:27;;;;;;;10.90;4.70;;;11.60;99.90;;;;;;10456912;28;20045;-62
2021/05/17 06:22:30;;;;;;;8.02;4.72;;;11.60;99.90;;;;;;10456616;28;20069;-61
2021/05/17 06:27:33;;;;;;;7.40;4.53;;;11.70;99.90;;;;;;10456755;28;20051;-61
2021/05/17 06:32:36;;;;;;;10.40;3.63;;;11.70;99.90;;;;;;10456525;28;20048;-61
2021/05/17 06:37:39;;;;;;;9.38;5.07;;;11.70;99.90;;;;;;10456691;28;20357;-61
2021/05/17 06:42:41;;;;;;;9.85;5.80;;;11.80;99.90;;;;;;10456406;28;20525;-60
2021/05/17 06:47:43;;;;;;;6.80;4.60;;;11.90;99.90;;;;;;10456242;28;20043;-60
2021/05/17 06:52:46;;;;;;;18.52;4.93;;;11.90;99.90;;;;;;10456117;28;20389;-60
2021/05/17 07:03:05;;;;;;;5.75;4.47;;;12.10;99.90;;;;;;10456505;28;20051;-60
2021/05/17 07:13:11;;;;;;;7.15;3.42;;;12.20;99.90;;;;;;10454493;28;20420;-60
2021/05/17 07:18:13;;;;;;;10.02;4.30;;;12.30;99.90;;;;;;10455736;28;20487;-60
2021/05/17 07:28:38;;;;;;;11.50;4.70;;;12.30;99.90;;;;;;10455546;28;20384;-62
2021/05/17 07:33:41;;;;;;;8.00;4.28;;;12.30;99.90;;;;;;10455460;28;20049;-62
2021/05/17 07:38:43;;;;;;;12.48;4.53;;;12.20;99.90;;;;;;10459238;28;20136;-59
2021/05/17 07:43:46;;;;;;;7.63;3.88;;;12.30;99.90;;;;;;10462283;28;20053;-58
2021/05/17 07:54:15;;;;;;;7.45;3.55;;;12.50;99.90;;;;;;10462139;28;20389;-60
2021/05/17 07:59:19;;;;;;;8.45;3.17;;;12.50;99.90;;;;;;10462105;28;20392;-59
2021/05/17 08:04:22;;;;;;;8.77;3.92;;;12.50;99.90;;;;;;10461727;28;20469;-60
2021/05/17 08:09:24;;;;;;;6.38;3.45;;;12.50;99.90;;;;;;10462359;28;20041;-59
2021/05/17 08:14:26;;;;;;;5.88;3.05;;;12.60;99.90;;;;;;10461427;28;20067;-60
2021/05/17 08:19:28;;;;;;;6.18;3.13;;;12.80;99.90;;;;;;10461351;28;20059;-60
2021/05/17 08:24:30;;;;;;;8.15;3.30;;;13.00;99.90;;;;;;10461016;28;20393;-61
2021/05/17 08:29:35;;;;;;;8.38;4.10;;;13.20;99.90;;;;;;10461356;28;20041;-63
2021/05/17 08:34:38;;;;;;;9.82;3.78;;;13.10;99.90;;;;;;10461439;28;20128;-61
2021/05/17 08:39:41;;;;;;;7.40;4.28;;;13.00;99.90;;;;;;10460980;28;20124;-60
2021/05/17 08:44:59;;;;;;;6.20;2.72;;;13.00;99.90;;;;;;10460950;28;20081;-62
2021/05/17 08:50:01;;;;;;;5.32;3.42;;;13.10;99.90;;;;;;10458732;28;20389;-62
2021/05/17 08:55:09;;;;;;;7.20;4.28;;;13.00;99.90;;;;;;10459855;28;20051;-62
2021/05/17 09:00:13;;;;;;;8.77;4.10;;;13.30;99.90;;;;;;10460271;28;20047;-61
2021/05/17 09:05:21;;;;;;;6.20;3.53;;;13.40;99.90;;;;;;10459527;28;20075;-62
2021/05/17 09:10:38;;;;;;;5.63;3.20;;;13.50;99.90;;;;;;10458985;28;20045;-61
2021/05/17 09:15:50;;;;;;;4.53;2.83;;;14.10;99.90;;;;;;10459267;28;20072;-59
2021/05/17 09:20:54;;;;;;;3.53;2.60;;;14.60;99.90;;;;;;10460040;28;20052;-62
2021/05/17 09:26:14;;;;;;;5.80;2.30;;;14.50;99.90;;;;;;10458745;28;20381;-61
2021/05/17 09:31:19;;;;;;;4.22;2.13;;;14.50;99.90;;;;;;10459102;28;20041;-59
2021/05/17 09:36:31;;;;;;;3.00;2.15;;;14.60;99.90;;;;;;10458476;28;20044;-60
2021/05/17 09:41:55;;;;;;;2.53;1.92;;;14.70;99.90;;;;;;10458147;28;20392;-61
2021/05/17 09:47:14;;;;;;;7.25;2.55;;;14.30;99.90;;;;;;10458027;28;20076;-60
2021/05/17 09:52:20;;;;;;;2.17;1.50;;;14.60;99.90;;;;;;10458193;28;20045;-59
2021/05/17 09:57:25;;;;;;;1.83;1.73;;;14.60;99.90;;;;;;10457729;28;20044;-59
2021/05/17 10:02:54;;;;;;;5.95;1.95;;;15.30;99.90;;;;;;10457015;28;20055;-59
2021/05/17 10:08:05;;;;;;;4.80;2.05;;;15.20;99.90;;;;;;10457408;28;20049;-61
2021/05/17 10:13:19;;;;;;;3.28;2.67;;;15.10;99.90;;;;;;10457578;28;20064;-58
2021/05/17 10:18:21;;;;;;;4.68;2.72;;;15.50;99.90;;;;;;10457008;28;20063;-59
2021/05/17 10:23:25;;;;;;;6.35;2.47;;;15.90;99.90;;;;;;10456833;28;20557;-60
2021/05/17 10:28:31;;;;;;;3.95;1.95;;;16.00;99.90;;;;;;10455840;28;20040;-58
2021/05/17 10:33:33;;;;;;;4.40;1.33;;;15.70;99.90;;;;;;10456862;28;20053;-59
2021/05/17 10:38:47;;;;;;;3.17;1.15;;;15.60;99.90;;;;;;10471667;28;20424;-59
2021/05/17 10:49:39;;;;;;;2.13;1.00;;;15.60;99.90;;;;;;10451800;28;20484;-59
2021/05/17 10:54:44;;;;;;;3.15;1.80;;;15.50;99.90;;;;;;10456339;28;20083;-59
2021/05/17 11:05:16;;;;;;;5.72;1.98;;;15.60;99.90;;;;;;10456452;28;20045;-59
2021/05/17 11:10:23;;;;;;;4.55;2.17;;;16.10;99.90;;;;;;10456272;28;20052;-59
2021/05/17 11:15:50;;;;;;;4.22;2.35;;;16.10;99.90;;;;;;10463974;28;20053;-61
2021/05/17 11:20:59;;;;;;;3.63;2.30;;;15.90;99.90;;;;;;10463691;28;20111;-60
2021/05/17 11:36:52;;;;;;;7.13;2.90;;;15.70;99.90;;;;;;10462980;28;20501;-59
2021/05/17 11:41:56;;;;;;;3.00;2.80;;;15.80;99.90;;;;;;10462691;28;20397;-58
2021/05/17 11:47:19;;;;;;;3.83;2.75;;;15.80;99.90;;;;;;10462841;28;20052;-59
2021/05/17 11:52:25;;;;;;;9.65;4.13;;;15.80;99.90;;;;;;10462922;28;20072;-61
2021/05/17 11:57:37;;;;;;;5.53;3.17;;;15.40;99.90;;;;;;10462442;28;20045;-59
2021/05/17 12:02:53;;;;;;;;;;;14.80;99.90;;;;;;10462537;28;20080;-59
2021/05/17 12:07:57;;;;;;;5.93;2.30;;;14.40;99.90;;;;;;10462354;28;19923;-59
2021/05/17 12:13:12;;;;;;;7.15;3.05;;;14.40;99.90;;;;;;10460633;28;20051;-59
2021/05/17 12:18:14;;;;;;;4.43;2.13;;;14.70;99.90;;;;;;10461872;28;20043;-61
2021/05/17 12:23:16;;;;;;;3.78;3.03;;;14.70;99.90;;;;;;10460675;28;20045;-58
2021/05/17 12:28:18;;;;;;;3.25;2.95;;;15.10;99.90;;;;;;10476717;28;20041;-58
2021/05/17 12:33:22;;;;;;;3.55;3.25;;;15.30;99.90;;;;;;10459860;28;20060;-59
2021/05/17 12:38:24;;;;;;;4.75;3.85;;;15.20;99.90;;;;;;10461008;28;20045;-59
2021/05/17 12:43:26;;;;;;;4.30;3.90;;;15.10;99.90;;;;;;10475827;28;20385;-59
2021/05/17 12:48:47;;;;;;;4.78;4.38;;;15.10;99.90;;;;;;10460718;28;20045;-59
2021/05/17 12:53:53;;;;;;;5.20;4.72;;;15.00;99.90;;;;;;10460105;28;20409;-59
2021/05/17 12:58:55;;;;;;;4.88;4.47;;;15.10;99.90;;;;;;10460119;28;20055;-59
2021/05/17 13:03:57;;;;;;;7.45;6.72;;;15.00;99.90;;;;;;10460069;28;20051;-60
2021/05/17 13:09:19;;;;;;;8.98;8.15;;;14.80;99.90;;;;;;10458460;28;20037;-59
2021/05/17 13:14:26;;;;;;;9.13;8.32;;;14.40;99.90;;;;;;10459619;28;20124;-60
2021/05/17 13:35:12;;;;;;;7.13;6.53;;;14.30;99.90;;;;;;10457861;28;20044;-60
2021/05/17 13:40:15;;;;;;;9.48;7.53;;;14.40;99.90;;;;;;10458486;28;20045;-60
2021/05/17 13:45:19;;;;;;;7.38;6.68;;;14.70;99.90;;;;;;10457956;28;20045;-60
2021/05/17 13:50:21;;;;;;;5.82;5.30;;;15.20;99.90;;;;;;10458255;28;20044;-59
2021/05/17 13:55:23;;;;;;;6.50;5.88;;;16.20;99.90;;;;;;10458136;28;20076;-59
2021/05/17 14:00:26;;;;;;;4.07;3.72;;;16.10;99.90;;;;;;10457655;28;20392;-59
2021/05/17 14:05:28;;;;;;;4.25;3.95;;;16.50;99.90;;;;;;10457347;28;20441;-59
2021/05/17 14:10:30;;;;;;;5.68;4.88;;;16.50;99.90;;;;;;10457701;28;20045;-60
2021/05/17 14:15:32;;;;;;;3.88;3.58;;;16.20;99.90;;;;;;10457118;28;20048;-59
2021/05/17 14:20:35;;;;;;;6.45;4.35;;;16.50;99.90;;;;;;10472277;28;20362;-60
2021/05/17 14:25:39;;;;;;;5.85;4.53;;;15.90;99.90;;;;;;10456491;28;20485;-59
2021/05/17 14:30:41;;;;;;;5.45;4.63;;;15.50;99.90;;;;;;10457180;28;20040;-60
2021/05/17 14:35:42;;;;;;;7.88;5.60;;;15.00;99.90;;;;;;10456692;28;20055;-60
2021/05/17 14:40:44;;;;;;;4.85;4.40;;;14.80;99.90;;;;;;10471997;28;20128;-61
2021/05/17 14:45:46;;;;;;;7.28;6.68;;;14.50;99.90;;;;;;10457253;28;20499;-59
2021/05/17 14:50:49;;;;;;;9.75;7.30;;;15.00;99.90;;;;;;10465213;28;20040;-60
2021/05/17 14:55:51;;;;;;;10.65;8.43;;;15.10;99.90;;;;;;10464534;28;20045;-59
2021/05/17 15:00:53;;;;;;;8.70;7.68;;;15.50;99.90;;;;;;10464582;28;20051;-60
2021/05/17 15:05:57;;;;;;;12.60;10.25;;;15.50;99.90;;;;;;10464129;28;20041;-60
2021/05/17 15:10:59;;;;;;;13.95;10.88;;;15.70;99.90;;;;;;10464690;28;20045;-60
2021/05/17 15:16:02;;;;;;;12.90;11.30;;;15.50;99.90;;;;;;10464193;28;20124;-59
2021/05/17 15:21:04;;;;;;;14.43;12.13;;;15.60;99.90;;;;;;10463821;28;20053;-60
2021/05/17 15:26:06;;;;;;;20.20;13.32;;;15.30;99.90;;;;;;10463406;28;20465;-60
2021/05/17 15:31:08;;;;;;;15.77;11.13;;;15.20;99.90;;;;;;10463373;28;20449;-61
2021/05/17 15:36:10;;;;;;;14.95;11.05;;;15.20;99.90;;;;;;10463162;28;20477;-60
2021/05/17 15:41:13;;;;;;;11.15;10.05;;;15.10;99.90;;;;;;10463038;28;20433;-63
2021/05/17 15:46:15;;;;;;;13.82;10.07;;;15.10;99.90;;;;;;10462756;28;20041;-61
2021/05/17 15:51:31;;;;;;;11.88;9.55;;;14.70;99.90;;;;;;10462856;28;20128;-62
2021/05/17 15:56:33;;;;;;;13.02;8.95;;;14.60;99.90;;;;;;10461109;28;20049;-60
2021/05/17 16:01:36;;;;;;;9.63;8.63;;;14.50;99.90;;;;;;10461532;28;20119;-61
2021/05/17 16:06:39;;;;;;;7.13;5.40;;;14.50;99.90;;;;;;10461664;28;20049;-62
2021/05/17 16:11:47;;;;;;;7.20;3.50;;;14.60;99.90;;;;;;10461830;28;20381;-61
2021/05/17 16:17:06;;;;;;;4.20;2.70;;;14.70;99.90;;;;;;10461552;28;20053;-60
2021/05/17 16:22:11;;;;;;;3.40;2.58;;;14.90;99.90;;;;;;10462635;28;20132;-61
2021/05/17 16:27:13;;;;;;;5.10;3.13;;;15.00;99.90;;;;;;10461038;28;20385;-60
2021/05/17 16:32:16;;;;;;;4.55;2.75;;;15.00;99.90;;;;;;10461004;28;20501;-60
2021/05/17 16:37:18;;;;;;;3.58;2.33;;;15.20;99.90;;;;;;10460893;28;20366;-60
2021/05/17 16:42:23;;;;;;;4.82;2.00;;;15.20;99.90;;;;;;10461340;28;20041;-60
2021/05/17 16:47:24;;;;;;;3.72;1.20;;;15.20;99.90;;;;;;10460305;28;20045;-61
2021/05/17 16:52:28;;;;;;;5.38;1.92;;;15.20;99.90;;;;;;10460434;28;20052;-60
2021/05/17 16:57:30;;;;;;;3.28;2.00;;;15.20;99.90;;;;;;10460336;28;20044;-60
2021/05/17 17:02:32;;;;;;;5.00;2.15;;;15.10;99.90;;;;;;10459950;28;20049;-61
2021/05/17 17:07:35;;;;;;;2.92;1.85;;;15.10;99.90;;;;;;10459876;28;20047;-60
2021/05/17 17:12:38;;;;;;;4.32;1.90;;;14.90;99.90;;;;;;10458235;28;20435;-61
2021/05/17 17:17:40;;;;;;;5.07;2.58;;;14.90;99.90;;;;;;10459814;28;20045;-61
2021/05/17 17:22:43;;;;;;;5.80;2.08;;;14.90;99.90;;;;;;10458758;28;20103;-61
2021/05/17 17:27:45;;;;;;;3.58;2.30;;;14.70;99.90;;;;;;10458976;28;20095;-59
2021/05/17 17:32:47;;;;;;;1.95;1.77;;;14.70;99.90;;;;;;10458808;28;20041;-60
2021/05/17 17:37:50;;;;;;;9.27;2.95;;;14.60;99.90;;;;;;10458351;28;20481;-59
2021/05/17 17:42:52;;;;;;;5.07;2.30;;;14.60;99.90;;;;;;10458350;28;20044;-60
2021/05/17 17:47:54;;;;;;;7.00;2.85;;;14.60;99.90;;;;;;10458072;28;20465;-61
2021/05/17 17:52:56;;;;;;;5.78;3.13;;;14.60;99.90;;;;;;10458306;28;20045;-59
2021/05/17 17:57:58;;;;;;;4.15;2.20;;;14.50;99.90;;;;;;10457662;28;20045;-58
2021/05/17 18:03:00;;;;;;;5.55;3.15;;;14.40;99.90;;;;;;10458112;28;20045;-58
2021/05/17 18:08:04;;;;;;;5.50;2.70;;;14.30;99.90;;;;;;10457354;28;20120;-59
2021/05/17 18:13:06;;;;;;;4.45;2.13;;;14.20;99.90;;;;;;10457292;28;20055;-59
2021/05/17 18:18:08;;;;;;;10.27;2.70;;;14.00;99.90;;;;;;10457261;28;20041;-60
2021/05/17 18:23:09;;;;;;;5.03;3.05;;;13.90;99.90;;;;;;10456748;28;20095;-60
2021/05/17 18:28:12;;;;;;;7.20;4.25;;;13.70;99.90;;;;;;10457852;28;20055;-59
2021/05/17 18:33:30;;;;;;;9.85;4.30;;;13.60;99.90;;;;;;10456745;28;20047;-59
2021/05/17 18:38:32;;;;;;;9.57;4.38;;;13.50;99.90;;;;;;10457046;28;20047;-60
2021/05/17 18:48:51;;;;;;;9.52;3.65;;;13.30;99.90;;;;;;10456361;28;20047;-60
2021/05/17 18:53:58;;;;;;;9.25;3.85;;;13.40;99.90;;;;;;10456477;28;20049;-59
2021/05/17 18:59:02;;;;;;;9.07;4.85;;;13.20;99.90;;;;;;10456388;28;20052;-58
2021/05/17 19:04:05;;;;;;;12.63;4.88;;;13.20;99.90;;;;;;10456142;28;20049;-59
2021/05/17 19:09:09;;;;;;;11.98;5.45;;;13.20;99.90;;;;;;10456310;28;20049;-58
2021/05/17 19:14:11;;;;;;;12.82;6.03;;;13.20;99.90;;;;;;10455930;28;20052;-59
2021/05/17 19:19:14;;;;;;;15.15;6.80;;;13.10;99.90;;;;;;10456044;28;20041;-58
2021/05/17 19:24:16;;;;;;;16.65;5.80;;;12.90;99.90;;;;;;10455569;28;20384;-60
2021/05/17 19:29:19;;;;;;;17.58;5.80;;;12.80;99.90;;;;;;10455648;28;20386;-59
2021/05/17 19:34:23;;;;;;;13.70;6.25;;;12.80;99.90;;;;;;10460308;28;20473;-60
2021/05/17 19:39:25;;;;;;;17.23;6.18;;;12.60;99.90;;;;;;10463956;28;20052;-59
2021/05/17 19:44:27;;;;;;;15.05;6.00;;;12.40;99.90;;;;;;10462542;28;20041;-59
2021/05/17 19:49:29;;;;;;;17.48;6.30;;;12.40;99.90;;;;;;10478950;28;20048;-58
2021/05/17 19:54:31;;;;;;;17.80;6.85;;;12.30;99.90;;;;;;10462640;28;20463;-59
2021/05/17 19:59:34;;;;;;;16.80;7.85;;;12.10;99.90;;;;;;10462544;28;20043;-58
2021/05/17 20:04:36;;;;;;;15.60;7.25;;;12.10;99.90;;;;;;10462567;28;20040;-60
2021/05/17 20:09:40;;;;;;;18.15;7.75;;;12.00;99.90;;;;;;10462212;28;20045;-58
2021/05/17 20:14:42;;;;;;;17.63;8.32;;;11.90;99.90;;;;;;10461957;28;20055;-60
2021/05/17 20:19:44;;;;;;;17.92;7.20;;;11.90;99.90;;;;;;10461628;28;20377;-60
2021/05/17 20:24:48;;;;;;;18.08;7.28;;;11.90;99.90;;;;;;10461757;28;20045;-59
2021/05/17 20:29:49;;;;;;;14.85;7.93;;;11.70;99.90;;;;;;10461297;28;20510;-59
2021/05/17 20:40:12;;;;;;;18.58;7.55;;;11.60;99.90;;;;;;10460838;28;20381;-59
2021/05/17 20:45:15;;;;;;;19.15;8.88;;;11.60;99.90;;;;;;10460005;28;20388;-60
2021/05/17 20:50:20;;;;;;;21.38;8.52;;;11.60;99.90;;;;;;10461111;28;20037;-61
2021/05/17 20:55:23;;;;;;;22.50;8.32;;;11.50;99.90;;;;;;10460398;28;20051;-59
2021/05/17 21:00:30;;;;;;;20.58;8.40;;;11.40;99.90;;;;;;10459954;28;20041;-60
2021/05/17 21:05:32;;;;;;;26.83;9.80;;;11.40;99.90;;;;;;10459832;28;20040;-62
2021/05/17 21:10:34;;;;;;;26.67;10.48;;;11.10;99.90;;;;;;10459969;28;20041;-61
2021/05/17 21:15:37;;;;;;;19.35;9.10;;;10.90;99.90;;;;;;10459256;28;20397;-61
2021/05/17 21:20:41;;;;;;;22.48;8.75;;;11.00;99.90;;;;;;10459286;28;20385;-62
2021/05/17 21:25:45;;;;;;;29.15;9.68;;;11.00;99.90;;;;;;10458966;28;20056;-60
2021/05/17 21:30:47;;;;;;;16.13;7.80;;;11.00;99.90;;;;;;10458974;28;20049;-61
2021/05/17 21:35:49;;;;;;;27.90;10.05;;;11.00;99.90;;;;;;10473625;28;20393;-59
2021/05/17 21:40:51;;;;;;;24.65;7.90;;;10.80;99.90;;;;;;10458713;28;20037;-59
2021/05/17 21:45:53;;;;;;;28.25;9.43;;;10.80;99.90;;;;;;10457724;28;20043;-60
2021/05/17 21:50:55;;;;;;;22.83;10.50;;;10.80;99.90;;;;;;10458047;28;20481;-61
2021/05/17 21:55:57;;;;;;;17.83;9.25;;;10.70;99.90;;;;;;10457112;28;20477;-61
2021/05/17 22:00:59;;;;;;;21.40;8.55;;;10.60;99.90;;;;;;10458080;28;20048;-59
2021/05/17 22:06:01;;;;;;;27.42;10.38;;;10.60;99.90;;;;;;10457661;28;20045;-60
2021/05/17 22:11:04;;;;;;;21.00;9.63;;;10.40;99.90;;;;;;10456128;28;20544;-60
2021/05/17 22:16:10;;;;;;;22.95;10.57;;;10.30;99.90;;;;;;10456277;28;20055;-60
2021/05/17 22:21:12;;;;;;;19.42;10.40;;;10.20;99.90;;;;;;10457303;28;20128;-60
2021/05/17 22:26:14;;;;;;;19.33;8.93;;;10.30;99.90;;;;;;10456784;28;20120;-60
2021/05/17 22:31:20;;;;;;;20.75;10.45;;;10.20;99.90;;;;;;10456905;28;20052;-60
2021/05/17 22:36:21;;;;;;;25.42;10.90;;;10.20;99.90;;;;;;10455336;28;20045;-61
2021/05/17 22:41:24;;;;;;;21.52;11.48;;;10.30;99.90;;;;;;10456404;28;20473;-60
2021/05/17 22:46:26;;;;;;;32.25;13.65;;;10.30;99.90;;;;;;10455887;28;20128;-62
2021/05/17 22:51:33;;;;;;;28.70;13.32;;;10.20;99.90;;;;;;10456800;28;20123;-58
2021/05/17 22:56:35;;;;;;;26.88;13.05;;;10.20;99.90;;;;;;10456486;28;20071;-59
2021/05/17 23:01:37;;;;;;;26.38;13.15;;;10.30;99.90;;;;;;10438737;28;20452;-60
2021/05/17 23:06:39;;;;;;;28.90;14.65;;;10.40;99.90;;;;;;10456979;28;20045;-61
2021/05/17 23:11:42;;;;;;;26.55;13.73;;;10.40;99.90;;;;;;10464483;28;20055;-61
2021/05/17 23:16:44;;;;;;;25.15;12.80;;;10.50;99.90;;;;;;10464256;28;20048;-60
2021/05/17 23:21:57;;;;;;;21.90;12.98;;;10.50;99.90;;;;;;10463547;28;20120;-59
2021/05/17 23:32:22;;;;;;;22.33;12.18;;;10.50;99.90;;;;;;10464170;28;20045;-60
2021/05/17 23:37:23;;;;;;;25.05;11.75;;;10.50;99.90;;;;;;10463408;28;20045;-59
2021/05/17 23:42:26;;;;;;;24.08;13.80;;;10.40;99.90;;;;;;10463163;28;20052;-59
2021/05/17 23:47:27;;;;;;;27.13;13.25;;;10.50;99.90;;;;;;10462792;28;20470;-62
2021/05/17 23:52:29;;;;;;;24.20;13.00;;;10.50;99.90;;;;;;10462856;28;20045;-60
2021/05/17 23:57:32;;;;;;;25.15;12.57;;;10.50;99.90;;;;;;10462913;28;20052;-60
